Roaming Shores, Ohio
Current Conditions -  °F | °C
As of 6:53 PM on Friday 28 Nov 2014 (Local Time) from KHZY Reporting Station
Clear Clear  
Wind Chill: 16°   Ceiling: Unl
Heat Index: 23°   Visibility: 10mi
Dew Point: 13°   Wind: 6mph
Humidity: 65%   Direction: 170°S
Pressure: 30.22"   Gusts: NA
Location:  41.6051°N, 80.867°W
Report Text: KHZY 282353Z AUTO 17005KT 10SM CLR M05/M11 A3022 RMK AO2 SLP245 60000 T10501106 11033 21050 56008
Loading
Personal Weather Stations






























Interactive Weather Map New forecast layout! Learn more

10-Day Weather Forecast

Advertisements
Track Severe Weather on mobile